Time;durP1;ratioP1;P1;durP2;ratioP2;P2;SDS_P1;SDS_P2;PMS_P1;PMS_P2;Temp;Humidity;BMP_temperature;BMP_pressure;BME280_temperature;BME280_humidity;BME280_pressure;Samples;Min_cycle;Max_cycle;Signal;HPM_P1;HPM_P2
2021/10/15 00:00:39;;;;;;;8.13;4.05;;;13.30;99.90;;;;;;5016328;28;20364;-77
2021/10/15 00:03:05;;;;;;;8.35;3.63;;;13.30;99.90;;;;;;5016113;28;20455;-76
2021/10/15 00:05:31;;;;;;;6.20;3.63;;;13.30;99.90;;;;;;5014979;28;20033;-77
2021/10/15 00:07:57;;;;;;;9.93;4.00;;;13.30;99.90;;;;;;5016110;28;20029;-77
2021/10/15 00:10:23;;;;;;;10.18;4.38;;;13.20;99.90;;;;;;5015348;28;20375;-77
2021/10/15 00:12:48;;;;;;;6.68;4.13;;;13.20;99.90;;;;;;5016716;28;20105;-80
2021/10/15 00:15:14;;;;;;;10.02;3.95;;;13.20;99.90;;;;;;5019543;28;20100;-79
2021/10/15 00:17:40;;;;;;;11.30;4.18;;;13.30;99.90;;;;;;5017763;28;20018;-78
2021/10/15 00:20:06;;;;;;;7.85;3.65;;;13.20;99.90;;;;;;5017136;28;20034;-78
2021/10/15 00:22:32;;;;;;;9.77;3.53;;;13.20;99.90;;;;;;5016892;28;20033;-79
2021/10/15 00:24:58;;;;;;;7.82;3.67;;;13.10;99.90;;;;;;5014863;28;20053;-78
2021/10/15 00:27:24;;;;;;;10.05;3.90;;;13.10;99.90;;;;;;5016199;28;20034;-78
2021/10/15 00:29:50;;;;;;;7.78;3.70;;;13.10;99.90;;;;;;5016384;28;20418;-78
2021/10/15 00:32:15;;;;;;;11.57;4.32;;;13.10;99.90;;;;;;5016336;28;20036;-78
2021/10/15 00:34:42;;;;;;;12.85;4.22;;;13.20;99.90;;;;;;5015236;28;20058;-78
2021/10/15 00:37:08;;;;;;;8.13;4.65;;;13.10;99.90;;;;;;5015996;28;20022;-78
2021/10/15 00:39:34;;;;;;;13.02;4.20;;;13.20;99.90;;;;;;5015746;28;20025;-78
2021/10/15 00:41:59;;;;;;;11.60;4.50;;;13.10;99.90;;;;;;5015725;28;20105;-78
2021/10/15 00:44:25;;;;;;;9.68;3.67;;;13.10;99.90;;;;;;5016758;28;20018;-77
2021/10/15 00:46:51;;;;;;;7.55;3.58;;;13.10;99.90;;;;;;5016356;28;20038;-78
2021/10/15 00:49:16;;;;;;;15.60;4.90;;;13.10;99.90;;;;;;5016211;28;20144;-78
2021/10/15 00:51:44;;;;;;;10.07;4.30;;;13.10;99.90;;;;;;5013632;28;20029;-77
2021/10/15 00:54:12;;;;;;;11.35;5.22;;;13.00;99.90;;;;;;5015178;28;20501;-77
2021/10/15 00:56:38;;;;;;;10.95;4.97;;;13.00;99.90;;;;;;5015232;28;20105;-77
2021/10/15 00:59:04;;;;;;;10.88;4.40;;;13.10;99.90;;;;;;5014037;28;20018;-77
2021/10/15 01:01:30;;;;;;;8.23;4.05;;;13.00;99.90;;;;;;5013895;28;20387;-77
2021/10/15 01:04:00;;;;;;;9.35;3.40;;;13.00;99.90;;;;;;5013976;28;20372;-77
2021/10/15 01:06:27;;;;;;;8.75;4.05;;;13.00;99.90;;;;;;5014804;28;20037;-80
2021/10/15 01:08:53;;;;;;;10.15;4.50;;;13.00;99.90;;;;;;5015263;28;20562;-79
2021/10/15 01:11:19;;;;;;;16.55;4.60;;;13.10;99.90;;;;;;5015340;28;20026;-80
2021/10/15 01:13:45;;;;;;;10.23;4.38;;;13.10;99.90;;;;;;5014507;28;20170;-78
2021/10/15 01:16:13;;;;;;;8.95;3.90;;;13.10;99.90;;;;;;5013646;28;20025;-77
2021/10/15 01:18:40;;;;;;;12.97;3.67;;;13.10;99.90;;;;;;5013610;28;20084;-78
2021/10/15 01:21:07;;;;;;;6.78;3.78;;;13.00;99.90;;;;;;5015016;28;20014;-78
2021/10/15 01:23:33;;;;;;;12.68;4.47;;;13.00;99.90;;;;;;5014763;28;20029;-77
2021/10/15 01:25:58;;;;;;;11.70;4.50;;;13.10;99.90;;;;;;5013515;28;20030;-78
2021/10/15 01:28:26;;;;;;;7.82;3.72;;;13.10;99.90;;;;;;5013732;28;20100;-79
2021/10/15 01:30:52;;;;;;;11.88;3.90;;;13.00;99.90;;;;;;5016172;28;20049;-79
2021/10/15 01:33:18;;;;;;;9.05;3.42;;;13.00;99.90;;;;;;5015374;28;20088;-79
2021/10/15 01:35:50;;;;;;;10.80;4.40;;;13.10;99.90;;;;;;5015938;28;20025;-79
2021/10/15 01:38:16;;;;;;;10.73;3.75;;;13.10;99.90;;;;;;5016014;28;20049;-79
2021/10/15 01:40:43;;;;;;;14.13;5.07;;;13.10;99.90;;;;;;5014163;28;20026;-78
2021/10/15 01:43:11;;;;;;;12.10;4.82;;;13.10;99.90;;;;;;5015142;28;20033;-79
2021/10/15 01:45:36;;;;;;;7.43;3.63;;;13.10;99.90;;;;;;5014734;28;20066;-78
2021/10/15 01:48:03;;;;;;;8.57;3.70;;;13.10;99.90;;;;;;5014512;28;20487;-78
2021/10/15 01:50:29;;;;;;;7.88;3.58;;;13.10;99.90;;;;;;5013169;28;20022;-78
2021/10/15 01:52:56;;;;;;;11.10;4.65;;;13.10;99.90;;;;;;5014026;28;20029;-77
2021/10/15 01:55:22;;;;;;;11.10;4.43;;;13.00;99.90;;;;;;5015078;28;20057;-79
2021/10/15 01:57:48;;;;;;;11.65;3.78;;;13.10;99.90;;;;;;5013607;28;20018;-79
2021/10/15 02:00:15;;;;;;;6.72;3.10;;;13.10;99.90;;;;;;5014904;28;20064;-77
2021/10/15 02:02:42;;;;;;;9.73;5.25;;;13.00;99.90;;;;;;5012367;28;20557;-77
2021/10/15 02:05:10;;;;;;;10.98;5.07;;;13.00;99.90;;;;;;5013807;28;20372;-77
2021/10/15 02:07:36;;;;;;;13.15;4.65;;;13.00;99.90;;;;;;5014666;28;20033;-77
2021/10/15 02:10:03;;;;;;;10.93;4.35;;;13.00;99.90;;;;;;5012846;28;20026;-76
2021/10/15 02:12:29;;;;;;;11.60;3.55;;;13.10;99.90;;;;;;5012412;28;20026;-77
2021/10/15 02:14:54;;;;;;;12.95;3.67;;;13.00;99.90;;;;;;5012635;28;20387;-78
2021/10/15 02:17:20;;;;;;;7.90;3.53;;;13.00;99.90;;;;;;5014146;28;20061;-78
2021/10/15 02:19:45;;;;;;;7.35;4.00;;;13.10;99.90;;;;;;5013843;28;20093;-78
2021/10/15 02:22:11;;;;;;;11.32;4.07;;;13.10;99.90;;;;;;5014357;28;20030;-78
2021/10/15 02:24:36;;;;;;;12.13;4.40;;;13.10;99.90;;;;;;5014104;28;20029;-78
2021/10/15 02:27:03;;;;;;;11.80;3.70;;;13.10;99.90;;;;;;5013748;28;20386;-78
2021/10/15 02:29:29;;;;;;;11.48;4.28;;;13.10;99.90;;;;;;5013722;28;20495;-77
2021/10/15 02:31:54;;;;;;;11.65;3.05;;;13.20;99.90;;;;;;5012264;28;20545;-76
2021/10/15 02:34:20;;;;;;;5.95;2.75;;;13.20;99.90;;;;;;5012559;28;20022;-78
2021/10/15 02:36:46;;;;;;;15.68;3.53;;;13.20;99.90;;;;;;5012521;28;20021;-77
2021/10/15 02:39:14;;;;;;;8.55;3.60;;;13.20;99.90;;;;;;5012722;28;20380;-77
2021/10/15 02:41:39;;;;;;;13.30;4.13;;;13.20;99.90;;;;;;5013814;28;20088;-78
2021/10/15 02:44:07;;;;;;;9.02;3.28;;;13.20;99.90;;;;;;5015351;28;20022;-79
2021/10/15 02:46:33;;;;;;;9.80;3.85;;;13.20;99.90;;;;;;5013905;28;20034;-79
2021/10/15 02:48:58;;;;;;;10.52;3.65;;;13.20;99.90;;;;;;5013822;28;20018;-78
2021/10/15 02:51:24;;;;;;;10.45;3.20;;;13.20;99.90;;;;;;5015609;28;20026;-79
2021/10/15 02:53:50;;;;;;;6.97;3.13;;;13.20;99.90;;;;;;5017167;28;20022;-79
2021/10/15 02:56:15;;;;;;;8.55;3.45;;;13.20;99.90;;;;;;5013994;28;20014;-79
2021/10/15 02:58:41;;;;;;;14.98;3.60;;;13.20;99.90;;;;;;5016271;28;20026;-79
2021/10/15 03:01:06;;;;;;;8.80;3.60;;;13.20;99.90;;;;;;5018912;28;20033;-80
2021/10/15 03:03:32;;;;;;;12.77;3.85;;;13.20;99.90;;;;;;5017437;28;20395;-80
2021/10/15 03:05:58;;;;;;;10.40;3.25;;;14.60;99.90;;;;;;5016916;28;20498;-79
2021/10/15 03:08:23;;;;;;;7.47;3.08;;;13.20;99.90;;;;;;5017962;28;20030;-80
2021/10/15 03:10:49;;;;;;;7.72;3.72;;;13.20;99.90;;;;;;5017900;28;20106;-80
2021/10/15 03:13:14;;;;;;;11.02;3.72;;;13.20;99.90;;;;;;5017174;28;20029;-79
2021/10/15 03:15:40;;;;;;;11.20;3.80;;;13.20;99.90;;;;;;5019831;28;20022;-80
2021/10/15 03:18:06;;;;;;;13.15;3.85;;;13.10;99.90;;;;;;5019048;28;20107;-80
2021/10/15 03:20:31;;;;;;;10.18;3.97;;;13.10;99.90;;;;;;5018662;28;20018;-80
2021/10/15 03:22:57;;;;;;;13.73;3.75;;;13.10;99.90;;;;;;5019142;28;20076;-80
2021/10/15 03:25:23;;;;;;;23.75;4.75;;;13.20;99.90;;;;;;5018744;28;20040;-80
2021/10/15 03:27:48;;;;;;;8.60;3.40;;;13.10;99.90;;;;;;5018840;28;20395;-80
2021/10/15 03:30:14;;;;;;;12.95;4.30;;;13.20;99.90;;;;;;5019653;28;20161;-81
2021/10/15 03:32:40;;;;;;;12.73;3.20;;;13.20;99.90;;;;;;5019335;28;20117;-80
2021/10/15 03:35:06;;;;;;;16.05;4.95;;;13.20;99.90;;;;;;5016966;28;20479;-79
2021/10/15 03:37:33;;;;;;;9.27;3.13;;;13.20;99.90;;;;;;5016846;28;20140;-79
2021/10/15 03:39:58;;;;;;;7.97;3.60;;;13.20;99.90;;;;;;5017014;28;20105;-78
2021/10/15 03:42:25;;;;;;;15.50;4.20;;;13.20;99.90;;;;;;5015745;28;20062;-78
2021/10/15 03:44:51;;;;;;;18.65;4.20;;;13.20;99.90;;;;;;5015440;28;20071;-78
2021/10/15 03:47:17;;;;;;;15.48;3.70;;;13.20;99.90;;;;;;5017051;28;20080;-78
2021/10/15 03:49:42;;;;;;;8.00;4.03;;;13.30;99.90;;;;;;5016747;28;20058;-77
2021/10/15 03:52:08;;;;;;;9.13;4.10;;;13.30;99.90;;;;;;5015276;28;20037;-78
2021/10/15 03:54:34;;;;;;;8.43;3.30;;;13.30;99.90;;;;;;5016332;28;20080;-79
2021/10/15 03:56:59;;;;;;;9.05;3.75;;;13.30;99.90;;;;;;5017632;28;20041;-78
2021/10/15 03:59:25;;;;;;;11.38;4.35;;;13.30;99.90;;;;;;5016661;28;20022;-76
2021/10/15 04:01:51;;;;;;;10.43;3.75;;;13.30;99.90;;;;;;5016450;28;20080;-75
2021/10/15 04:04:16;;;;;;;9.00;3.60;;;13.40;99.90;;;;;;5016558;28;20081;-75
2021/10/15 04:06:42;;;;;;;7.10;3.30;;;13.30;99.90;;;;;;5014963;28;20041;-75
2021/10/15 04:09:07;;;;;;;12.18;3.63;;;13.30;99.90;;;;;;5016221;28;20495;-76
2021/10/15 04:11:33;;;;;;;10.25;4.32;;;13.30;99.90;;;;;;5016372;28;20026;-76
2021/10/15 04:13:59;;;;;;;11.13;3.78;;;13.30;99.90;;;;;;5016302;28;20018;-76
2021/10/15 04:16:25;;;;;;;12.35;3.97;;;13.30;99.90;;;;;;5014686;28;20019;-76
2021/10/15 04:18:51;;;;;;;11.55;3.58;;;13.40;99.90;;;;;;5014701;28;20026;-76
2021/10/15 04:21:16;;;;;;;13.25;3.60;;;13.40;99.90;;;;;;5015802;28;20502;-76
2021/10/15 04:23:42;;;;;;;8.98;3.63;;;13.40;99.90;;;;;;5016083;28;20091;-75
2021/10/15 04:26:07;;;;;;;9.43;4.00;;;13.40;99.90;;;;;;5013897;28;20030;-75
2021/10/15 04:28:33;;;;;;;22.08;4.88;;;13.30;99.90;;;;;;5016278;28;20075;-76
2021/10/15 04:30:59;;;;;;;10.55;3.53;;;13.30;99.90;;;;;;5014398;28;20026;-76
2021/10/15 04:33:25;;;;;;;12.65;4.63;;;13.30;99.90;;;;;;5015728;28;20022;-76
2021/10/15 04:35:50;;;;;;;16.52;4.43;;;13.20;99.90;;;;;;5015634;28;20383;-75
2021/10/15 04:38:16;;;;;;;10.57;3.75;;;13.20;99.90;;;;;;5015869;28;20022;-75
2021/10/15 04:40:42;;;;;;;10.30;4.28;;;13.20;99.90;;;;;;5015614;28;20014;-76
2021/10/15 04:43:07;;;;;;;12.13;3.85;;;13.30;99.90;;;;;;5015367;28;20030;-75
2021/10/15 04:45:33;;;;;;;12.20;4.15;;;13.20;99.90;;;;;;5014104;28;20037;-75
2021/10/15 04:47:59;;;;;;;11.80;4.22;;;13.30;99.90;;;;;;5015579;28;20022;-76
2021/10/15 04:50:25;;;;;;;8.02;3.47;;;13.30;99.90;;;;;;5015638;28;20026;-76
2021/10/15 04:52:51;;;;;;;6.53;3.15;;;13.20;99.90;;;;;;5015216;28;20065;-76
2021/10/15 04:55:17;;;;;;;9.48;3.80;;;13.20;99.90;;;;;;5014027;28;20062;-76
2021/10/15 04:57:42;;;;;;;11.15;4.20;;;13.20;99.90;;;;;;5015186;28;20041;-77
2021/10/15 05:00:08;;;;;;;12.40;4.53;;;13.30;99.90;;;;;;5015563;28;20055;-77
2021/10/15 05:02:40;;;;;;;13.02;4.22;;;13.30;99.90;;;;;;5013704;28;20022;-76
2021/10/15 05:05:08;;;;;;;11.20;3.47;;;13.30;99.90;;;;;;5013809;28;20026;-76
2021/10/15 05:07:38;;;;;;;9.27;4.15;;;13.30;99.90;;;;;;5015624;28;20049;-78
2021/10/15 05:10:04;;;;;;;6.25;3.25;;;13.30;99.90;;;;;;5014958;28;20018;-78
2021/10/15 05:12:30;;;;;;;8.25;3.60;;;13.30;99.90;;;;;;5013491;28;20026;-78
2021/10/15 05:14:56;;;;;;;15.13;4.20;;;13.30;99.90;;;;;;5013616;28;20018;-78
2021/10/15 05:17:22;;;;;;;13.85;4.45;;;13.30;99.90;;;;;;5015277;28;20025;-78
2021/10/15 05:19:47;;;;;;;14.05;4.15;;;13.20;99.90;;;;;;5014822;28;20373;-77
2021/10/15 05:22:13;;;;;;;9.45;4.30;;;13.30;99.90;;;;;;5013479;28;20030;-77
2021/10/15 05:24:39;;;;;;;10.63;3.30;;;13.20;99.90;;;;;;5013549;28;20029;-78
2021/10/15 05:27:05;;;;;;;10.80;3.38;;;13.20;99.90;;;;;;5014678;28;20029;-78
2021/10/15 05:29:31;;;;;;;11.10;4.00;;;13.20;99.90;;;;;;5014947;28;20116;-75
2021/10/15 05:31:56;;;;;;;10.77;3.50;;;13.20;99.90;;;;;;5014292;28;20113;-75
2021/10/15 05:34:22;;;;;;;11.10;3.05;;;13.20;99.90;;;;;;5015775;28;20018;-75
2021/10/15 05:36:48;;;;;;;11.57;3.30;;;13.20;99.90;;;;;;5019038;28;20053;-76
2021/10/15 05:39:14;;;;;;;10.30;2.70;;;13.20;99.90;;;;;;5016249;28;20117;-75
2021/10/15 05:41:39;;;;;;;13.02;4.00;;;13.30;99.90;;;;;;5018493;28;20022;-76
2021/10/15 05:44:05;;;;;;;11.23;3.05;;;13.30;99.90;;;;;;5018011;28;20021;-75
2021/10/15 05:46:30;;;;;;;7.75;2.55;;;13.50;99.90;;;;;;5018843;28;20036;-76
2021/10/15 05:48:56;;;;;;;7.47;1.65;;;13.30;99.90;;;;;;5015300;28;20018;-75
2021/10/15 05:51:23;;;;;;;6.88;1.45;;;13.30;99.90;;;;;;5013123;28;20104;-75
2021/10/15 05:53:51;;;;;;;6.35;1.27;;;13.30;99.90;;;;;;5012831;28;20473;-75
2021/10/15 05:59:04;;;;;;;2.78;0.75;;;13.30;99.90;;;;;;5017455;28;20030;-79
2021/10/15 06:01:30;;;;;;;7.13;1.40;;;13.20;99.90;;;;;;5013061;28;20504;-76
2021/10/15 06:14:46;;;;;;;3.85;0.73;;;13.10;99.90;;;;;;5013948;28;20160;-73
2021/10/15 06:17:15;;;;;;;6.97;0.93;;;13.10;99.90;;;;;;5014112;28;20105;-73
2021/10/15 06:19:58;;;;;;;4.38;0.80;;;13.10;99.90;;;;;;5015523;28;20471;-73
2021/10/15 06:22:26;;;;;;;1.75;0.00;;;13.10;99.90;;;;;;5012536;28;20049;-74
2021/10/15 06:24:52;;;;;;;2.13;0.22;;;13.00;99.90;;;;;;5014551;28;20108;-74
2021/10/15 06:27:19;;;;;;;0.70;0.00;;;13.00;99.90;;;;;;5017077;28;20049;-73
2021/10/15 06:29:46;;;;;;;1.20;0.43;;;12.90;99.90;;;;;;5016833;28;20032;-74
2021/10/15 06:32:11;;;;;;;0.28;0.00;;;12.70;99.90;;;;;;5017475;28;20034;-74
2021/10/15 06:34:37;;;;;;;0.63;0.00;;;12.60;99.90;;;;;;5015603;28;20091;-73
2021/10/15 06:37:03;;;;;;;1.50;0.32;;;12.50;99.90;;;;;;5015706;28;20503;-73
2021/10/15 06:39:29;;;;;;;2.53;0.00;;;12.40;99.90;;;;;;5015652;28;20497;-74
2021/10/15 06:41:54;;;;;;;0.10;0.00;;;12.20;99.90;;;;;;5015526;28;20116;-73
2021/10/15 06:44:20;;;;;;;0.85;0.00;;;12.10;99.90;;;;;;5016143;28;20029;-73
2021/10/15 06:46:45;;;;;;;0.98;0.10;;;12.10;99.90;;;;;;5016804;28;20037;-73
2021/10/15 06:49:11;;;;;;;0.70;0.00;;;12.00;99.90;;;;;;5016979;28;20498;-73
2021/10/15 06:51:37;;;;;;;0.95;0.00;;;11.90;99.90;;;;;;5019869;28;20406;-73
2021/10/15 06:54:03;;;;;;;0.10;0.00;;;11.80;99.90;;;;;;5019289;28;20095;-74
2021/10/15 06:56:29;;;;;;;1.75;0.00;;;11.80;99.90;;;;;;5018895;28;20109;-74
2021/10/15 06:58:55;;;;;;;2.83;0.13;;;11.70;99.90;;;;;;5019544;28;20463;-74
2021/10/15 07:01:20;;;;;;;0.82;0.00;;;11.60;99.90;;;;;;5018623;28;20025;-74
2021/10/15 07:03:46;;;;;;;3.08;0.00;;;11.50;99.90;;;;;;5016090;28;20018;-74
2021/10/15 07:06:12;;;;;;;0.40;0.00;;;11.40;99.90;;;;;;5020191;28;20033;-74
2021/10/15 07:08:37;;;;;;;0.55;0.00;;;11.40;99.90;;;;;;5020169;28;20108;-74
2021/10/15 07:11:03;;;;;;;1.23;0.00;;;11.30;99.90;;;;;;5020052;28;20026;-74
2021/10/15 07:13:28;;;;;;;1.67;0.00;;;11.30;99.90;;;;;;5020443;28;20137;-74
2021/10/15 07:15:54;;;;;;;3.13;0.00;;;11.30;99.90;;;;;;5016583;28;20387;-74
2021/10/15 07:18:19;;;;;;;0.75;0.00;;;11.30;99.90;;;;;;5020001;28;20022;-74
2021/10/15 07:20:45;;;;;;;0.82;0.38;;;11.30;99.90;;;;;;5019162;28;20483;-74
2021/10/15 07:23:13;;;;;;;5.43;0.00;;;11.30;99.90;;;;;;5039890;28;20025;-74
2021/10/15 07:25:39;;;;;;;1.17;0.52;;;11.30;99.90;;;;;;5039625;28;20033;-74
2021/10/15 07:28:06;;;;;;;2.92;0.00;;;11.30;99.90;;;;;;5019737;28;20057;-74
2021/10/15 07:30:32;;;;;;;1.52;0.30;;;11.30;99.90;;;;;;5019161;28;20445;-74
2021/10/15 07:32:57;;;;;;;4.07;0.00;;;11.30;99.90;;;;;;5012129;28;20031;-73
2021/10/15 07:35:23;;;;;;;1.83;0.10;;;11.40;99.90;;;;;;5020182;28;20029;-74
2021/10/15 07:37:49;;;;;;;3.92;0.10;;;11.40;99.90;;;;;;5020015;28;20028;-73
2021/10/15 07:40:14;;;;;;;1.10;0.00;;;11.50;99.90;;;;;;5020038;28;20042;-74
2021/10/15 07:42:40;;;;;;;2.05;0.00;;;11.50;99.90;;;;;;5018560;28;20021;-74
2021/10/15 07:45:06;;;;;;;1.65;0.00;;;11.50;99.90;;;;;;5019113;28;20107;-74
2021/10/15 07:47:31;;;;;;;1.88;0.00;;;11.60;99.90;;;;;;5018721;28;20038;-73
2021/10/15 07:49:57;;;;;;;0.28;0.00;;;11.60;99.90;;;;;;5019410;28;20030;-75
2021/10/15 07:52:22;;;;;;;0.45;0.00;;;11.60;99.90;;;;;;5018165;28;20045;-73
2021/10/15 07:54:48;;;;;;;3.35;0.55;;;11.70;99.90;;;;;;5019261;28;20545;-74
2021/10/15 07:57:14;;;;;;;1.70;0.17;;;11.80;99.90;;;;;;5019410;28;20037;-74
2021/10/15 07:59:41;;;;;;;2.63;0.00;;;11.80;99.90;;;;;;5018022;28;20032;-74
2021/10/15 08:02:07;;;;;;;1.90;0.00;;;11.90;99.90;;;;;;5016558;28;20018;-74
2021/10/15 08:04:33;;;;;;;1.45;0.00;;;12.00;99.90;;;;;;5018612;28;20030;-74
2021/10/15 08:06:58;;;;;;;2.40;0.00;;;12.00;99.90;;;;;;5019829;28;20383;-75
2021/10/15 08:09:24;;;;;;;1.23;0.17;;;12.10;99.90;;;;;;5019370;28;20037;-74
2021/10/15 08:11:49;;;;;;;1.75;0.00;;;12.10;99.90;;;;;;5018590;28;20029;-74
2021/10/15 08:14:15;;;;;;;2.45;0.10;;;12.20;99.90;;;;;;5017958;28;20548;-74
2021/10/15 08:16:41;;;;;;;3.13;0.22;;;12.20;99.90;;;;;;5018950;28;20065;-74
2021/10/15 08:19:06;;;;;;;2.97;0.00;;;12.20;99.90;;;;;;5007150;28;20022;-74
2021/10/15 08:21:32;;;;;;;1.83;0.00;;;12.20;99.90;;;;;;5017680;28;20026;-74
2021/10/15 08:23:58;;;;;;;2.85;0.20;;;12.20;99.90;;;;;;5019130;28;20064;-74
2021/10/15 08:26:24;;;;;;;4.05;0.05;;;12.20;99.90;;;;;;5017788;28;20022;-74
2021/10/15 08:28:53;;;;;;;2.70;0.00;;;12.30;99.90;;;;;;5017774;28;20026;-75
2021/10/15 08:31:21;;;;;;;3.72;0.10;;;12.40;99.90;;;;;;5018657;28;20026;-74
2021/10/15 08:33:47;;;;;;;1.15;0.00;;;12.40;99.90;;;;;;5018748;28;20034;-74
2021/10/15 08:36:12;;;;;;;0.82;0.10;;;12.40;99.90;;;;;;5018697;28;20030;-74
2021/10/15 08:38:38;;;;;;;2.30;0.00;;;12.40;99.90;;;;;;5019052;28;20100;-74
2021/10/15 08:41:03;;;;;;;3.03;0.10;;;12.40;99.90;;;;;;5019152;28;20022;-74
2021/10/15 08:43:37;;;;;;;5.88;0.00;;;12.40;99.90;;;;;;5018344;28;20364;-74
2021/10/15 08:46:04;;;;;;;3.85;0.40;;;12.50;99.90;;;;;;4999092;28;20097;-74
2021/10/15 08:48:29;;;;;;;1.92;0.20;;;12.50;99.90;;;;;;5007471;28;20036;-74
2021/10/15 08:50:57;;;;;;;2.85;0.43;;;12.60;99.90;;;;;;5018970;28;20105;-74
2021/10/15 08:53:22;;;;;;;2.67;0.00;;;12.80;99.90;;;;;;5018666;28;20042;-74
2021/10/15 08:55:48;;;;;;;4.30;0.65;;;13.00;99.90;;;;;;5018075;28;20034;-74
2021/10/15 08:58:14;;;;;;;7.03;0.00;;;13.20;99.90;;;;;;5018661;28;20022;-76
2021/10/15 09:00:39;;;;;;;2.95;0.00;;;13.40;99.90;;;;;;5018220;28;20026;-75
2021/10/15 09:03:08;;;;;;;1.77;0.32;;;13.60;99.90;;;;;;5018512;28;20029;-76
2021/10/15 09:05:33;;;;;;;5.63;0.20;;;13.80;99.90;;;;;;5019494;28;20026;-76
2021/10/15 09:08:01;;;;;;;4.45;0.55;;;13.80;99.90;;;;;;5020662;28;20098;-75
2021/10/15 09:10:32;;;;;;;2.05;0.00;;;13.50;99.90;;;;;;5020971;28;20598;-75
2021/10/15 09:13:10;;;;;;;3.33;0.40;;;13.50;99.90;;;;;;5019660;28;20524;-76
2021/10/15 09:15:36;;;;;;;3.00;0.10;;;13.40;99.90;;;;;;5018800;28;20028;-75
2021/10/15 09:18:20;;;;;;;3.10;0.00;;;13.50;99.90;;;;;;5019281;28;20491;-75
2021/10/15 09:20:48;;;;;;;5.22;0.50;;;13.60;99.90;;;;;;5014703;28;20499;-75
2021/10/15 09:23:15;;;;;;;9.95;0.90;;;13.80;99.90;;;;;;5014157;28;20022;-75
2021/10/15 09:25:43;;;;;;;5.80;0.00;;;13.90;99.90;;;;;;5014391;28;20030;-75
2021/10/15 09:28:22;;;;;;;5.73;0.47;;;14.00;99.90;;;;;;5014456;28;20113;-75
2021/10/15 09:30:50;;;;;;;7.22;0.68;;;14.00;99.90;;;;;;5014697;28;20088;-74
2021/10/15 09:33:18;;;;;;;6.93;0.00;;;14.10;99.90;;;;;;5014662;28;20022;-73
2021/10/15 09:35:44;;;;;;;5.53;0.00;;;14.10;99.90;;;;;;5014539;28;20018;-73
2021/10/15 09:38:10;;;;;;;2.90;0.00;;;14.10;99.90;;;;;;5012067;28;20342;-73
2021/10/15 09:40:37;;;;;;;2.17;0.00;;;14.20;99.90;;;;;;5014685;28;20022;-73
2021/10/15 09:43:06;;;;;;;3.00;0.10;;;14.20;99.90;;;;;;5014089;28;20022;-73
2021/10/15 09:45:54;;;;;;;2.08;0.00;;;14.20;99.90;;;;;;5012653;28;20099;-73
2021/10/15 09:48:24;;;;;;;3.65;0.45;;;14.20;99.90;;;;;;5013858;28;20026;-73
2021/10/15 09:51:15;;;;;;;5.88;0.00;;;14.20;99.90;;;;;;5012671;28;20509;-73
2021/10/15 09:54:02;;;;;;;5.07;0.70;;;14.30;99.90;;;;;;5013747;28;20042;-73
2021/10/15 09:56:45;;;;;;;2.85;0.00;;;14.40;99.90;;;;;;5014005;28;20040;-73
2021/10/15 09:59:11;;;;;;;4.97;1.58;;;14.50;99.90;;;;;;5014106;28;20074;-73
2021/10/15 10:01:37;;;;;;;4.25;0.10;;;14.60;99.90;;;;;;5014442;28;20067;-73
2021/10/15 10:04:06;;;;;;;5.72;0.10;;;14.60;99.90;;;;;;5013983;28;20030;-73
2021/10/15 10:06:32;;;;;;;;;;;14.70;99.90;;;;;;5014006;28;20137;-73
2021/10/15 10:08:59;;;;;;;3.40;0.00;;;14.80;99.90;;;;;;5013773;28;20390;-73
2021/10/15 10:11:26;;;;;;;7.13;0.40;;;14.90;99.90;;;;;;5012398;28;20079;-73
2021/10/15 10:13:52;;;;;;;3.15;0.20;;;14.80;99.90;;;;;;5013801;28;20072;-73
2021/10/15 10:16:19;;;;;;;3.50;0.00;;;14.80;99.90;;;;;;5013819;28;20144;-73
2021/10/15 10:18:45;;;;;;;1.58;0.00;;;14.90;99.90;;;;;;5012520;28;20029;-73
2021/10/15 10:21:23;;;;;;;2.40;0.10;;;15.00;99.90;;;;;;5013614;28;20054;-74
2021/10/15 10:23:54;;;;;;;6.88;0.73;;;15.00;99.90;;;;;;5011884;28;20022;-74
2021/10/15 10:26:23;;;;;;;4.10;0.00;;;15.10;99.90;;;;;;5012328;28;20494;-74
2021/10/15 10:29:04;;;;;;;3.55;0.20;;;15.20;99.90;;;;;;5014265;28;20022;-74
2021/10/15 10:31:31;;;;;;;5.63;0.30;;;15.20;99.90;;;;;;5015758;28;20030;-74
2021/10/15 10:34:05;;;;;;;2.25;0.00;;;15.20;99.90;;;;;;5015687;28;20048;-75
2021/10/15 10:36:33;;;;;;;4.55;0.05;;;15.20;99.90;;;;;;5017186;28;20017;-75
2021/10/15 10:39:20;;;;;;;4.60;0.85;;;15.10;99.90;;;;;;5013912;28;20053;-74
2021/10/15 10:42:06;;;;;;;5.82;0.77;;;15.30;99.90;;;;;;5002413;28;20041;-74
2021/10/15 10:44:39;;;;;;;4.13;0.13;;;15.40;99.90;;;;;;5013034;28;20033;-74
2021/10/15 10:47:14;;;;;;;4.40;0.70;;;15.60;99.90;;;;;;5013536;28;20034;-74
2021/10/15 10:49:42;;;;;;;1.20;0.00;;;15.70;99.90;;;;;;5013447;28;20021;-74
2021/10/15 10:52:17;;;;;;;5.00;0.00;;;15.90;99.90;;;;;;5011939;28;20391;-74
2021/10/15 10:54:44;;;;;;;3.72;0.00;;;15.90;99.90;;;;;;5013337;28;20026;-74
2021/10/15 10:57:34;;;;;;;6.75;0.70;;;15.90;99.90;;;;;;5013641;28;20483;-74
2021/10/15 11:00:22;;;;;;;6.57;0.52;;;16.10;99.90;;;;;;5005191;28;20034;-74
2021/10/15 11:02:59;;;;;;;4.13;0.00;;;15.90;99.90;;;;;;5012007;28;20339;-74
2021/10/15 11:05:29;;;;;;;1.27;0.00;;;15.60;99.90;;;;;;5012005;28;20029;-74
2021/10/15 11:08:27;;;;;;;4.60;0.45;;;15.20;99.90;;;;;;5013303;28;20495;-74
2021/10/15 11:11:22;;;;;;;4.78;0.20;;;14.90;99.90;;;;;;5012000;28;20022;-74
2021/10/15 11:13:48;;;;;;;2.72;0.40;;;14.60;99.90;;;;;;5011777;28;20445;-74
2021/10/15 11:16:28;;;;;;;4.35;0.00;;;14.40;99.90;;;;;;5013171;28;20029;-73
2021/10/15 11:18:54;;;;;;;6.95;0.75;;;14.10;99.90;;;;;;5011880;28;20052;-73
2021/10/15 11:21:20;;;;;;;8.60;0.05;;;13.90;99.90;;;;;;5012969;28;20036;-73
2021/10/15 11:23:46;;;;;;;2.83;0.00;;;13.90;99.90;;;;;;5012176;28;20041;-72
2021/10/15 11:26:12;;;;;;;4.53;0.32;;;14.10;99.90;;;;;;5013026;28;20025;-72
2021/10/15 11:28:38;;;;;;;5.15;0.00;;;14.50;99.90;;;;;;5013632;28;20018;-72
2021/10/15 11:31:11;;;;;;;6.03;0.10;;;14.90;99.90;;;;;;5013094;28;20034;-73
2021/10/15 11:33:39;;;;;;;2.17;0.00;;;15.50;99.90;;;;;;5012799;28;20071;-73
2021/10/15 11:36:06;;;;;;;3.87;0.00;;;16.10;99.90;;;;;;5014961;28;20022;-73
2021/10/15 11:38:32;;;;;;;2.38;0.20;;;16.40;99.90;;;;;;5016166;28;20284;-73
2021/10/15 11:41:02;;;;;;;2.53;0.00;;;16.50;99.90;;;;;;5016622;28;20030;-73
2021/10/15 11:43:33;;;;;;;10.43;0.55;;;16.20;99.10;;;;;;5016900;28;20026;-73
2021/10/15 11:46:10;;;;;;;5.85;0.15;;;15.80;99.90;;;;;;5016753;28;20129;-73
2021/10/15 11:48:40;;;;;;;4.18;0.03;;;15.20;99.90;;;;;;5016585;28;20018;-73
2021/10/15 11:51:07;;;;;;;5.28;0.28;;;14.80;99.90;;;;;;5016784;28;20040;-73
2021/10/15 11:53:47;;;;;;;5.63;0.00;;;14.40;99.90;;;;;;5016291;28;20026;-73
2021/10/15 11:56:20;;;;;;;3.22;0.10;;;14.20;99.90;;;;;;5016397;28;20105;-73
2021/10/15 11:58:46;;;;;;;10.15;0.13;;;13.90;99.90;;;;;;5016554;28;20037;-73
2021/10/15 12:01:16;;;;;;;9.13;0.25;;;13.80;99.90;;;;;;5016243;28;20415;-73
2021/10/15 12:03:49;;;;;;;9.52;0.75;;;13.60;99.90;;;;;;5014987;28;20030;-73
2021/10/15 12:06:24;;;;;;;7.45;0.13;;;13.60;99.90;;;;;;5015038;28;20022;-73
2021/10/15 12:08:52;;;;;;;6.93;0.10;;;13.50;99.90;;;;;;5016145;28;20104;-73
2021/10/15 12:11:25;;;;;;;10.13;0.95;;;13.50;99.90;;;;;;5012860;28;20014;-73
2021/10/15 12:13:52;;;;;;;8.35;0.55;;;13.60;99.90;;;;;;5013072;28;20030;-74
2021/10/15 12:16:44;;;;;;;6.45;0.52;;;13.80;99.90;;;;;;5015999;28;20478;-74
2021/10/15 12:19:12;;;;;;;8.80;0.47;;;14.40;99.90;;;;;;5014949;28;20033;-74
2021/10/15 12:21:43;;;;;;;8.13;0.38;;;14.90;99.90;;;;;;5014526;28;20359;-75
2021/10/15 12:24:12;;;;;;;10.73;0.10;;;15.40;99.90;;;;;;5014629;28;20022;-74
2021/10/15 12:26:38;;;;;;;6.13;0.85;;;16.00;99.90;;;;;;5014533;28;20026;-74
2021/10/15 12:29:04;;;;;;;5.00;0.13;;;16.60;99.90;;;;;;5015734;28;20041;-74
2021/10/15 12:31:35;;;;;;;5.68;0.28;;;16.70;99.90;;;;;;5014416;28;20033;-74
2021/10/15 12:34:14;;;;;;;3.95;0.10;;;16.90;99.90;;;;;;5016307;28;20402;-74
2021/10/15 12:36:40;;;;;;;;;;;16.90;99.30;;;;;;5016134;28;20025;-74
2021/10/15 12:39:24;;;;;;;6.88;0.10;;;17.00;99.90;;;;;;5018734;28;19959;-74
2021/10/15 12:41:52;;;;;;;6.63;0.80;;;17.30;99.90;;;;;;5019222;28;20487;-71
2021/10/15 12:44:29;;;;;;;3.38;0.00;;;17.30;98.50;;;;;;5018762;28;20017;-75
2021/10/15 12:47:04;;;;;;;6.90;0.28;;;17.30;97.00;;;;;;5017353;28;20419;-75
2021/10/15 12:49:51;;;;;;;4.78;0.20;;;17.40;92.80;;;;;;5018946;28;20161;-75
2021/10/15 12:52:40;;;;;;;5.60;0.22;;;17.50;92.10;;;;;;5017083;28;20022;-75
2021/10/15 12:55:17;;;;;;;6.03;0.10;;;17.60;93.50;;;;;;5017884;28;20017;-75
2021/10/15 12:57:44;;;;;;;3.80;0.20;;;17.90;95.00;;;;;;5018818;28;20120;-75
2021/10/15 13:00:11;;;;;;;4.53;0.00;;;17.90;87.40;;;;;;5018528;28;20040;-75
2021/10/15 13:02:37;;;;;;;5.18;0.00;;;17.70;82.00;;;;;;5016864;28;20065;-75